SDM232 UWGG-ULLI
Flight info
| Callsign | SDM232 |
|---|---|
| Flight time | 1h 20m |
| Altitude | 36000 |
| Route | LARNO2U LARNO T784 ROKUR P164 PINOK N50 GENPA GENPA1A |
| Aircraft | B77W/H-SDE1E2E3FGHIJ2J3J4J5M1RWXY/LB1D1 |
Departure
| Time | 2026-04-17 09:09 |
|---|---|
| Airport | Nizhny Novgorod / Strigino International Airport (UWGG) |
Arrival
| Time | 2026-04-17 10:29 |
|---|---|
| Airport | Pulkovo Airport (ULLI) |
| Time | Latitude | Longitude | Altitude | Speed | Heading |
|---|---|---|---|---|---|
| 2026-04-17 08:19 | 56.21919 | 43.78837 | 271 ft | 0 kts | 101° |
| 2026-04-17 08:55 | 56.21921 | 43.78819 | 271 ft | 3 kts | 92° |
| 2026-04-17 08:55 | 56.21919 | 43.78785 | 271 ft | 3 kts | 63° |
| 2026-04-17 08:55 | 56.21908 | 43.78757 | 271 ft | 3 kts | 41° |
| 2026-04-17 08:55 | 56.21892 | 43.78735 | 271 ft | 3 kts | 28° |
| 2026-04-17 08:56 | 56.21874 | 43.78720 | 271 ft | 3 kts | 19° |
| 2026-04-17 08:56 | 56.21856 | 43.78711 | 271 ft | 2 kts | 12° |
| 2026-04-17 08:56 | 56.21853 | 43.78709 | 271 ft | 0 kts | 11° |
| 2026-04-17 08:59 | 56.21853 | 43.78710 | 271 ft | 0 kts | 11° |
| 2026-04-17 08:59 | 56.21863 | 43.78713 | 272 ft | 4 kts | 9° |
| 2026-04-17 08:59 | 56.21903 | 43.78694 | 271 ft | 7 kts | 333° |
| 2026-04-17 09:00 | 56.21947 | 43.78655 | 271 ft | 7 kts | 344° |
| 2026-04-17 09:00 | 56.21999 | 43.78658 | 271 ft | 10 kts | 7° |
| 2026-04-17 09:00 | 56.22071 | 43.78682 | 271 ft | 11 kts | 11° |
| 2026-04-17 09:00 | 56.22145 | 43.78708 | 271 ft | 11 kts | 11° |
| 2026-04-17 09:01 | 56.22217 | 43.78734 | 271 ft | 11 kts | 11° |
| 2026-04-17 09:01 | 56.22290 | 43.78761 | 271 ft | 11 kts | 12° |
| 2026-04-17 09:01 | 56.22363 | 43.78789 | 271 ft | 11 kts | 12° |
| 2026-04-17 09:01 | 56.22435 | 43.78826 | 271 ft | 11 kts | 26° |
| 2026-04-17 09:02 | 56.22506 | 43.78865 | 271 ft | 11 kts | 12° |
| 2026-04-17 09:02 | 56.22579 | 43.78892 | 271 ft | 11 kts | 11° |
| 2026-04-17 09:02 | 56.22652 | 43.78919 | 271 ft | 11 kts | 11° |
| 2026-04-17 09:02 | 56.22725 | 43.78946 | 271 ft | 11 kts | 11° |
| 2026-04-17 09:03 | 56.22798 | 43.78972 | 271 ft | 11 kts | 11° |
| 2026-04-17 09:03 | 56.22872 | 43.79000 | 271 ft | 11 kts | 12° |
| 2026-04-17 09:03 | 56.22945 | 43.79027 | 271 ft | 11 kts | 11° |
| 2026-04-17 09:03 | 56.23018 | 43.79053 | 271 ft | 11 kts | 11° |
| 2026-04-17 09:04 | 56.23091 | 43.79080 | 271 ft | 11 kts | 11° |
| 2026-04-17 09:04 | 56.23164 | 43.79107 | 271 ft | 11 kts | 11° |
| 2026-04-17 09:04 | 56.23237 | 43.79134 | 271 ft | 11 kts | 12° |
| 2026-04-17 09:04 | 56.23310 | 43.79161 | 271 ft | 11 kts | 12° |
| 2026-04-17 09:05 | 56.23383 | 43.79188 | 271 ft | 11 kts | 12° |
| 2026-04-17 09:05 | 56.23456 | 43.79216 | 271 ft | 11 kts | 12° |
| 2026-04-17 09:05 | 56.23530 | 43.79234 | 271 ft | 11 kts | 3° |
| 2026-04-17 09:05 | 56.23604 | 43.79240 | 271 ft | 11 kts | 2° |
| 2026-04-17 09:06 | 56.23679 | 43.79246 | 271 ft | 11 kts | 2° |
| 2026-04-17 09:06 | 56.23753 | 43.79252 | 271 ft | 11 kts | 2° |
| 2026-04-17 09:06 | 56.23827 | 43.79258 | 271 ft | 11 kts | 2° |
| 2026-04-17 09:06 | 56.23902 | 43.79263 | 271 ft | 11 kts | 2° |
| 2026-04-17 09:07 | 56.23976 | 43.79269 | 271 ft | 11 kts | 2° |
| 2026-04-17 09:07 | 56.24048 | 43.79244 | 271 ft | 11 kts | 331° |
| 2026-04-17 09:07 | 56.24097 | 43.79142 | 273 ft | 11 kts | 301° |
| 2026-04-17 09:07 | 56.24111 | 43.79018 | 273 ft | 11 kts | 248° |
| 2026-04-17 09:08 | 56.24070 | 43.78977 | 273 ft | 7 kts | 192° |
| 2026-04-17 09:08 | 56.24005 | 43.78953 | 272 ft | 19 kts | 192° |
| 2026-04-17 09:08 | 56.23694 | 43.78839 | 270 ft | 85 kts | 191° |
| 2026-04-17 09:08 | 56.22846 | 43.78530 | 271 ft | 161 kts | 191° |
| 2026-04-17 09:09 | 56.21595 | 43.78089 | 631 ft | 185 kts | 193° |
| 2026-04-17 09:09 | 56.20435 | 43.77644 | 1877 ft | 165 kts | 197° |
| 2026-04-17 09:09 | 56.19322 | 43.76810 | 2328 ft | 184 kts | 211° |
| 2026-04-17 09:09 | 56.18159 | 43.75644 | 2702 ft | 202 kts | 210° |
| 2026-04-17 09:10 | 56.15384 | 43.73116 | 3572 ft | 237 kts | 208° |
| 2026-04-17 09:10 | 56.13880 | 43.71804 | 4342 ft | 243 kts | 207° |
| 2026-04-17 09:10 | 56.12332 | 43.70480 | 5127 ft | 248 kts | 207° |
| 2026-04-17 09:11 | 56.10764 | 43.69164 | 5981 ft | 250 kts | 207° |
| 2026-04-17 09:11 | 56.09182 | 43.67842 | 6781 ft | 251 kts | 207° |
| 2026-04-17 09:11 | 56.07565 | 43.66501 | 7500 ft | 257 kts | 207° |
| 2026-04-17 09:11 | 56.05929 | 43.65156 | 8277 ft | 260 kts | 207° |
| 2026-04-17 09:12 | 56.04296 | 43.63814 | 8994 ft | 263 kts | 207° |
| 2026-04-17 09:12 | 56.02628 | 43.62424 | 9725 ft | 263 kts | 210° |
| 2026-04-17 09:12 | 56.01204 | 43.60419 | 10280 ft | 263 kts | 229° |
| 2026-04-17 09:12 | 55.99982 | 43.57828 | 10537 ft | 285 kts | 230° |
| 2026-04-17 09:13 | 55.98630 | 43.55016 | 10749 ft | 310 kts | 229° |
| 2026-04-17 09:13 | 55.97166 | 43.51987 | 10979 ft | 333 kts | 229° |
| 2026-04-17 09:13 | 55.95617 | 43.48796 | 11598 ft | 344 kts | 229° |
| 2026-04-17 09:13 | 55.94035 | 43.45550 | 12507 ft | 348 kts | 228° |
| 2026-04-17 09:14 | 55.92438 | 43.42292 | 13478 ft | 351 kts | 228° |
| 2026-04-17 09:14 | 55.90821 | 43.38988 | 14339 ft | 357 kts | 229° |
| 2026-04-17 09:14 | 55.89173 | 43.35622 | 15155 ft | 363 kts | 228° |
| 2026-04-17 09:14 | 55.87503 | 43.32219 | 16045 ft | 366 kts | 228° |
| 2026-04-17 09:15 | 55.85807 | 43.28773 | 16860 ft | 371 kts | 228° |
| 2026-04-17 09:15 | 55.84111 | 43.25331 | 17628 ft | 376 kts | 229° |
| 2026-04-17 09:15 | 55.82635 | 43.21486 | 18180 ft | 384 kts | 245° |
| 2026-04-17 09:15 | 55.81958 | 43.16846 | 18875 ft | 394 kts | 262° |
| 2026-04-17 09:16 | 55.82082 | 43.11949 | 19696 ft | 401 kts | 276° |
| 2026-04-17 09:16 | 55.82895 | 43.07161 | 20448 ft | 411 kts | 292° |
| 2026-04-17 09:16 | 55.84452 | 43.02847 | 20972 ft | 419 kts | 302° |
| 2026-04-17 09:16 | 55.86184 | 42.98606 | 21504 ft | 427 kts | 302° |
| 2026-04-17 09:17 | 55.87946 | 42.94311 | 22164 ft | 430 kts | 302° |
| 2026-04-17 09:17 | 55.89705 | 42.89974 | 22862 ft | 433 kts | 302° |
| 2026-04-17 09:17 | 55.91455 | 42.85594 | 23502 ft | 435 kts | 301° |
| 2026-04-17 09:17 | 55.93211 | 42.81146 | 24079 ft | 439 kts | 301° |
| 2026-04-17 09:18 | 55.94969 | 42.76652 | 24612 ft | 444 kts | 301° |
| 2026-04-17 09:18 | 55.96742 | 42.72105 | 25173 ft | 447 kts | 301° |
| 2026-04-17 09:18 | 55.98523 | 42.67527 | 25733 ft | 450 kts | 301° |
| 2026-04-17 09:18 | 56.00297 | 42.62965 | 26269 ft | 453 kts | 301° |
| 2026-04-17 09:19 | 56.02096 | 42.58326 | 26804 ft | 455 kts | 301° |
| 2026-04-17 09:19 | 56.03900 | 42.53663 | 27308 ft | 457 kts | 301° |
| 2026-04-17 09:19 | 56.05690 | 42.48927 | 27765 ft | 460 kts | 301° |
| 2026-04-17 09:19 | 56.07455 | 42.44111 | 28206 ft | 463 kts | 300° |
| 2026-04-17 09:20 | 56.09214 | 42.39262 | 28621 ft | 466 kts | 300° |
| 2026-04-17 09:20 | 56.10983 | 42.34373 | 29028 ft | 468 kts | 300° |
| 2026-04-17 09:20 | 56.12764 | 42.29464 | 29416 ft | 470 kts | 301° |
| 2026-04-17 09:20 | 56.14552 | 42.24545 | 29788 ft | 472 kts | 301° |
| 2026-04-17 09:21 | 56.16326 | 42.19666 | 30182 ft | 472 kts | 301° |
| 2026-04-17 09:21 | 56.18113 | 42.14742 | 30636 ft | 471 kts | 301° |
| 2026-04-17 09:21 | 56.19934 | 42.09832 | 31072 ft | 471 kts | 303° |
| 2026-04-17 09:21 | 56.21900 | 42.05105 | 31470 ft | 471 kts | 305° |
| 2026-04-17 09:22 | 56.23904 | 42.00444 | 31866 ft | 471 kts | 306° |
| 2026-04-17 09:22 | 56.25918 | 41.95798 | 32233 ft | 471 kts | 306° |
| 2026-04-17 09:22 | 56.27928 | 41.91148 | 32594 ft | 471 kts | 306° |
| 2026-04-17 09:22 | 56.29929 | 41.86490 | 32972 ft | 470 kts | 305° |
| 2026-04-17 09:23 | 56.31923 | 41.81823 | 33335 ft | 469 kts | 305° |
| 2026-04-17 09:23 | 56.33883 | 41.77212 | 33682 ft | 469 kts | 305° |
| 2026-04-17 09:23 | 56.35864 | 41.72532 | 34020 ft | 468 kts | 305° |
| 2026-04-17 09:23 | 56.37839 | 41.67857 | 34376 ft | 468 kts | 305° |
| 2026-04-17 09:24 | 56.39810 | 41.63181 | 34675 ft | 468 kts | 304° |
| 2026-04-17 09:24 | 56.41784 | 41.58488 | 34969 ft | 468 kts | 304° |
| 2026-04-17 09:24 | 56.43750 | 41.53804 | 35286 ft | 468 kts | 304° |
| 2026-04-17 09:24 | 56.45715 | 41.49114 | 35542 ft | 468 kts | 304° |
| 2026-04-17 09:25 | 56.47683 | 41.44409 | 35810 ft | 468 kts | 304° |
| 2026-04-17 09:25 | 56.49625 | 41.39759 | 35945 ft | 471 kts | 304° |
| 2026-04-17 09:25 | 56.53595 | 41.30222 | 36012 ft | 474 kts | 304° |
| 2026-04-17 09:26 | 56.57559 | 41.20673 | 36011 ft | 471 kts | 304° |
| 2026-04-17 09:26 | 56.61146 | 41.10873 | 36012 ft | 466 kts | 295° |
| 2026-04-17 09:27 | 56.63665 | 41.00100 | 36005 ft | 462 kts | 285° |
| 2026-04-17 09:27 | 56.65550 | 40.88979 | 36012 ft | 462 kts | 284° |
| 2026-04-17 09:28 | 56.67418 | 40.77793 | 36012 ft | 463 kts | 284° |
| 2026-04-17 09:28 | 56.69317 | 40.66550 | 36010 ft | 465 kts | 284° |
| 2026-04-17 09:29 | 56.71228 | 40.55254 | 36010 ft | 467 kts | 284° |
| 2026-04-17 09:29 | 56.73120 | 40.43999 | 36010 ft | 468 kts | 284° |
| 2026-04-17 09:30 | 56.75020 | 40.32633 | 36007 ft | 469 kts | 284° |
| 2026-04-17 09:30 | 56.76913 | 40.21227 | 36010 ft | 469 kts | 284° |
| 2026-04-17 09:31 | 56.78795 | 40.09817 | 36009 ft | 469 kts | 284° |
| 2026-04-17 09:31 | 56.80665 | 39.98409 | 36002 ft | 469 kts | 284° |
| 2026-04-17 09:32 | 56.82512 | 39.87061 | 35995 ft | 469 kts | 284° |
| 2026-04-17 09:32 | 56.84369 | 39.75634 | 35999 ft | 469 kts | 284° |
| 2026-04-17 09:33 | 56.85909 | 39.66127 | 36000 ft | 469 kts | 284° |
| 2026-04-17 09:33 | 56.87749 | 39.54695 | 35998 ft | 468 kts | 283° |
| 2026-04-17 09:34 | 56.89573 | 39.43264 | 35996 ft | 468 kts | 283° |
| 2026-04-17 09:34 | 56.91394 | 39.31828 | 36003 ft | 468 kts | 283° |
| 2026-04-17 09:35 | 56.93194 | 39.20381 | 36001 ft | 468 kts | 283° |
| 2026-04-17 09:35 | 56.94987 | 39.08923 | 36000 ft | 468 kts | 283° |
| 2026-04-17 09:36 | 56.96771 | 38.97448 | 36003 ft | 468 kts | 283° |
| 2026-04-17 09:36 | 56.98546 | 38.85952 | 36005 ft | 468 kts | 283° |
| 2026-04-17 09:37 | 57.00312 | 38.74439 | 36005 ft | 468 kts | 283° |
| 2026-04-17 09:37 | 57.02056 | 38.62987 | 36001 ft | 469 kts | 283° |
| 2026-04-17 09:38 | 57.03805 | 38.51415 | 36004 ft | 470 kts | 283° |
| 2026-04-17 09:38 | 57.05545 | 38.39830 | 36011 ft | 470 kts | 283° |
| 2026-04-17 09:39 | 57.07271 | 38.28252 | 36007 ft | 470 kts | 283° |
| 2026-04-17 09:39 | 57.08987 | 38.16662 | 36009 ft | 470 kts | 282° |
| 2026-04-17 09:40 | 57.10683 | 38.05126 | 36006 ft | 470 kts | 282° |
| 2026-04-17 09:40 | 57.12380 | 37.93495 | 36009 ft | 470 kts | 282° |
| 2026-04-17 09:41 | 57.14066 | 37.81855 | 36016 ft | 470 kts | 282° |
| 2026-04-17 09:41 | 57.15745 | 37.70185 | 36021 ft | 470 kts | 282° |
| 2026-04-17 09:42 | 57.17696 | 37.58713 | 36022 ft | 473 kts | 289° |
| 2026-04-17 09:42 | 57.20141 | 37.47434 | 36021 ft | 474 kts | 289° |
| 2026-04-17 09:43 | 57.22601 | 37.36113 | 36018 ft | 475 kts | 289° |
| 2026-04-17 09:43 | 57.25027 | 37.24753 | 36019 ft | 476 kts | 289° |
| 2026-04-17 09:44 | 57.27429 | 37.13362 | 36018 ft | 476 kts | 289° |
| 2026-04-17 09:44 | 57.29807 | 37.02015 | 36022 ft | 476 kts | 289° |
| 2026-04-17 09:45 | 57.32197 | 36.90554 | 36018 ft | 477 kts | 289° |
| 2026-04-17 09:45 | 57.34580 | 36.79071 | 36019 ft | 478 kts | 289° |
| 2026-04-17 09:46 | 57.36954 | 36.67559 | 36016 ft | 478 kts | 289° |
| 2026-04-17 09:46 | 57.39321 | 36.56015 | 36017 ft | 479 kts | 289° |
| 2026-04-17 09:47 | 57.41663 | 36.44529 | 36016 ft | 479 kts | 289° |
| 2026-04-17 09:47 | 57.44011 | 36.32937 | 36019 ft | 479 kts | 289° |
| 2026-04-17 09:48 | 57.46354 | 36.21320 | 36026 ft | 480 kts | 289° |
| 2026-04-17 09:48 | 57.48688 | 36.09671 | 36020 ft | 480 kts | 289° |
| 2026-04-17 09:49 | 57.51010 | 35.98100 | 36019 ft | 481 kts | 289° |
| 2026-04-17 09:49 | 57.53358 | 35.86418 | 36019 ft | 482 kts | 289° |
| 2026-04-17 09:50 | 57.55695 | 35.74711 | 36018 ft | 482 kts | 289° |
| 2026-04-17 09:50 | 57.58023 | 35.62966 | 36007 ft | 483 kts | 289° |
| 2026-04-17 09:51 | 57.60327 | 35.51275 | 35995 ft | 483 kts | 289° |
| 2026-04-17 09:51 | 57.62708 | 35.39535 | 35998 ft | 483 kts | 290° |
| 2026-04-17 09:52 | 57.65121 | 35.27809 | 35998 ft | 484 kts | 289° |
| 2026-04-17 09:52 | 57.67515 | 35.16040 | 36005 ft | 484 kts | 289° |
| 2026-04-17 09:53 | 57.69925 | 35.04277 | 36000 ft | 485 kts | 293° |
| 2026-04-17 09:53 | 57.73231 | 34.93358 | 36006 ft | 486 kts | 304° |
| 2026-04-17 09:54 | 57.77545 | 34.83533 | 36008 ft | 488 kts | 311° |
| 2026-04-17 09:54 | 57.82088 | 34.74023 | 36001 ft | 489 kts | 311° |
| 2026-04-17 09:55 | 57.86565 | 34.64525 | 35997 ft | 489 kts | 311° |
| 2026-04-17 09:55 | 57.91039 | 34.54887 | 36004 ft | 490 kts | 310° |
| 2026-04-17 09:56 | 57.95511 | 34.45187 | 35999 ft | 490 kts | 310° |
| 2026-04-17 09:56 | 57.99976 | 34.35470 | 36000 ft | 490 kts | 311° |
| 2026-04-17 09:57 | 58.04433 | 34.25740 | 36002 ft | 490 kts | 311° |
| 2026-04-17 09:57 | 58.08882 | 34.15988 | 35999 ft | 490 kts | 311° |
| 2026-04-17 09:58 | 58.13328 | 34.06208 | 36021 ft | 489 kts | 311° |
| 2026-04-17 09:58 | 58.17728 | 33.96489 | 36036 ft | 489 kts | 310° |
| 2026-04-17 09:59 | 58.22151 | 33.86676 | 36056 ft | 489 kts | 310° |
| 2026-04-17 09:59 | 58.26568 | 33.76834 | 36055 ft | 489 kts | 310° |
| 2026-04-17 10:00 | 58.30972 | 33.66980 | 36060 ft | 489 kts | 310° |
| 2026-04-17 10:00 | 58.35374 | 33.57092 | 36057 ft | 488 kts | 310° |
| 2026-04-17 10:01 | 58.39722 | 33.47275 | 36070 ft | 487 kts | 310° |
| 2026-04-17 10:01 | 58.44092 | 33.37374 | 36069 ft | 486 kts | 310° |
| 2026-04-17 10:02 | 58.48450 | 33.27462 | 36064 ft | 485 kts | 310° |
| 2026-04-17 10:02 | 58.52777 | 33.17577 | 36067 ft | 484 kts | 310° |
| 2026-04-17 10:03 | 58.57060 | 33.07746 | 36067 ft | 483 kts | 310° |
| 2026-04-17 10:03 | 58.61358 | 32.97837 | 36054 ft | 482 kts | 310° |
| 2026-04-17 10:04 | 58.65634 | 32.87939 | 36061 ft | 481 kts | 310° |
| 2026-04-17 10:04 | 58.69887 | 32.78040 | 36067 ft | 479 kts | 310° |
| 2026-04-17 10:05 | 58.74155 | 32.68084 | 35276 ft | 492 kts | 310° |
| 2026-04-17 10:05 | 58.76309 | 32.63040 | 34446 ft | 494 kts | 310° |
| 2026-04-17 10:05 | 58.78490 | 32.57916 | 33729 ft | 491 kts | 310° |
| 2026-04-17 10:06 | 58.80644 | 32.52843 | 33113 ft | 486 kts | 311° |
| 2026-04-17 10:06 | 58.82771 | 32.47825 | 32502 ft | 481 kts | 311° |
| 2026-04-17 10:06 | 58.84879 | 32.42842 | 31893 ft | 476 kts | 311° |
| 2026-04-17 10:06 | 58.86962 | 32.37913 | 31298 ft | 471 kts | 311° |
| 2026-04-17 10:07 | 58.89019 | 32.33031 | 30742 ft | 466 kts | 312° |
| 2026-04-17 10:07 | 58.91059 | 32.28182 | 30178 ft | 462 kts | 312° |
| 2026-04-17 10:07 | 58.93073 | 32.23381 | 29618 ft | 458 kts | 312° |
| 2026-04-17 10:07 | 58.95075 | 32.18599 | 29040 ft | 454 kts | 312° |
| 2026-04-17 10:08 | 58.97059 | 32.13854 | 28475 ft | 451 kts | 312° |
| 2026-04-17 10:08 | 58.99002 | 32.09199 | 27924 ft | 447 kts | 312° |
| 2026-04-17 10:08 | 59.00950 | 32.04517 | 27357 ft | 444 kts | 312° |
| 2026-04-17 10:08 | 59.02879 | 31.99873 | 26804 ft | 440 kts | 311° |
| 2026-04-17 10:09 | 59.04796 | 31.95250 | 26250 ft | 437 kts | 312° |
| 2026-04-17 10:09 | 59.06697 | 31.90659 | 25702 ft | 433 kts | 312° |
| 2026-04-17 10:09 | 59.08579 | 31.86107 | 25161 ft | 430 kts | 311° |
| 2026-04-17 10:09 | 59.10442 | 31.81588 | 24616 ft | 428 kts | 311° |
| 2026-04-17 10:10 | 59.12215 | 31.76943 | 24090 ft | 426 kts | 308° |
| 2026-04-17 10:10 | 59.13849 | 31.72236 | 23559 ft | 423 kts | 306° |
| 2026-04-17 10:10 | 59.15454 | 31.67449 | 23043 ft | 420 kts | 306° |
| 2026-04-17 10:11 | 59.18629 | 31.57967 | 22002 ft | 413 kts | 306° |
| 2026-04-17 10:11 | 59.20206 | 31.53303 | 21476 ft | 410 kts | 306° |
| 2026-04-17 10:11 | 59.21775 | 31.48684 | 20975 ft | 407 kts | 306° |
| 2026-04-17 10:11 | 59.23339 | 31.44089 | 20470 ft | 404 kts | 306° |
| 2026-04-17 10:12 | 59.24891 | 31.39529 | 19961 ft | 401 kts | 306° |
| 2026-04-17 10:12 | 59.26429 | 31.35005 | 19462 ft | 399 kts | 306° |
| 2026-04-17 10:12 | 59.27940 | 31.30550 | 18966 ft | 396 kts | 306° |
| 2026-04-17 10:12 | 59.29452 | 31.26081 | 18485 ft | 393 kts | 306° |
| 2026-04-17 10:13 | 59.30955 | 31.21633 | 17977 ft | 390 kts | 306° |
| 2026-04-17 10:13 | 59.32450 | 31.17199 | 17483 ft | 388 kts | 306° |
| 2026-04-17 10:13 | 59.33933 | 31.12792 | 16989 ft | 386 kts | 306° |
| 2026-04-17 10:13 | 59.35406 | 31.08410 | 16500 ft | 383 kts | 306° |
| 2026-04-17 10:14 | 59.36866 | 31.04057 | 16014 ft | 381 kts | 305° |
| 2026-04-17 10:14 | 59.38321 | 30.99713 | 15522 ft | 379 kts | 305° |
| 2026-04-17 10:14 | 59.39762 | 30.95398 | 15061 ft | 377 kts | 305° |
| 2026-04-17 10:14 | 59.41191 | 30.91168 | 14641 ft | 363 kts | 306° |
| 2026-04-17 10:15 | 59.42573 | 30.87091 | 13891 ft | 354 kts | 306° |
| 2026-04-17 10:15 | 59.43933 | 30.83088 | 12959 ft | 351 kts | 306° |
| 2026-04-17 10:15 | 59.45272 | 30.79149 | 12074 ft | 355 kts | 305° |
| 2026-04-17 10:15 | 59.46636 | 30.75123 | 11612 ft | 352 kts | 305° |
| 2026-04-17 10:16 | 59.47990 | 30.71109 | 11151 ft | 350 kts | 305° |
| 2026-04-17 10:16 | 59.49324 | 30.67145 | 10892 ft | 342 kts | 305° |
| 2026-04-17 10:16 | 59.50616 | 30.63291 | 10738 ft | 331 kts | 305° |
| 2026-04-17 10:16 | 59.51868 | 30.59561 | 10590 ft | 321 kts | 306° |
| 2026-04-17 10:17 | 59.53052 | 30.56025 | 10435 ft | 298 kts | 306° |
| 2026-04-17 10:17 | 59.54150 | 30.52728 | 10290 ft | 277 kts | 306° |
| 2026-04-17 10:17 | 59.55175 | 30.49652 | 10204 ft | 266 kts | 306° |
| 2026-04-17 10:17 | 59.56176 | 30.46647 | 10041 ft | 260 kts | 306° |
| 2026-04-17 10:18 | 59.57172 | 30.43663 | 9692 ft | 261 kts | 306° |
| 2026-04-17 10:18 | 59.58164 | 30.40683 | 9437 ft | 258 kts | 306° |
| 2026-04-17 10:18 | 59.59152 | 30.37708 | 9238 ft | 262 kts | 306° |
| 2026-04-17 10:18 | 59.60179 | 30.34627 | 8972 ft | 273 kts | 306° |
| 2026-04-17 10:19 | 59.61233 | 30.31463 | 8651 ft | 277 kts | 306° |
| 2026-04-17 10:19 | 59.62287 | 30.28275 | 8310 ft | 277 kts | 306° |
| 2026-04-17 10:19 | 59.62981 | 30.26172 | 8085 ft | 276 kts | 306° |
| 2026-04-17 10:19 | 59.64028 | 30.22997 | 7756 ft | 275 kts | 306° |
| 2026-04-17 10:20 | 59.65075 | 30.19818 | 7441 ft | 276 kts | 306° |
| 2026-04-17 10:20 | 59.66459 | 30.15615 | 6989 ft | 274 kts | 306° |
| 2026-04-17 10:20 | 59.67153 | 30.13499 | 6903 ft | 268 kts | 306° |
| 2026-04-17 10:20 | 59.68131 | 30.10497 | 6706 ft | 251 kts | 306° |
| 2026-04-17 10:21 | 59.69064 | 30.07645 | 6368 ft | 242 kts | 307° |
| 2026-04-17 10:21 | 59.69965 | 30.04903 | 5927 ft | 238 kts | 307° |
| 2026-04-17 10:21 | 59.70849 | 30.02194 | 5653 ft | 233 kts | 307° |
| 2026-04-17 10:21 | 59.71733 | 29.99486 | 5383 ft | 235 kts | 307° |
| 2026-04-17 10:22 | 59.72624 | 29.96764 | 5108 ft | 237 kts | 307° |
| 2026-04-17 10:22 | 59.73526 | 29.94016 | 4803 ft | 237 kts | 307° |
| 2026-04-17 10:22 | 59.74422 | 29.91261 | 4493 ft | 237 kts | 307° |
| 2026-04-17 10:22 | 59.75321 | 29.88496 | 4185 ft | 239 kts | 307° |
| 2026-04-17 10:23 | 59.76221 | 29.85721 | 3878 ft | 237 kts | 307° |
| 2026-04-17 10:23 | 59.77129 | 29.83106 | 3652 ft | 219 kts | 319° |
| 2026-04-17 10:23 | 59.78333 | 29.81699 | 3536 ft | 196 kts | 354° |
| 2026-04-17 10:23 | 59.79661 | 29.81780 | 3466 ft | 192 kts | 16° |
| 2026-04-17 10:24 | 59.80894 | 29.82832 | 3309 ft | 193 kts | 33° |
| 2026-04-17 10:24 | 59.81798 | 29.84718 | 3101 ft | 188 kts | 59° |
| 2026-04-17 10:24 | 59.82388 | 29.86926 | 2949 ft | 175 kts | 58° |
| 2026-04-17 10:24 | 59.82976 | 29.89033 | 2834 ft | 177 kts | 58° |
| 2026-04-17 10:25 | 59.83571 | 29.91185 | 2688 ft | 176 kts | 60° |
| 2026-04-17 10:25 | 59.83801 | 29.93504 | 2567 ft | 174 kts | 93° |
| 2026-04-17 10:25 | 59.83594 | 29.95910 | 2550 ft | 179 kts | 96° |
| 2026-04-17 10:25 | 59.83379 | 29.98380 | 2451 ft | 184 kts | 97° |
| 2026-04-17 10:26 | 59.83086 | 30.00862 | 2236 ft | 185 kts | 101° |
| 2026-04-17 10:26 | 59.82734 | 30.03324 | 1993 ft | 185 kts | 102° |
| 2026-04-17 10:26 | 59.82377 | 30.05722 | 1721 ft | 178 kts | 103° |
| 2026-04-17 10:26 | 59.82030 | 30.08051 | 1478 ft | 170 kts | 103° |
| 2026-04-17 10:27 | 59.81701 | 30.10280 | 1284 ft | 166 kts | 103° |
| 2026-04-17 10:27 | 59.81388 | 30.12413 | 1049 ft | 156 kts | 102° |
| 2026-04-17 10:27 | 59.81087 | 30.14436 | 890 ft | 153 kts | 103° |
| 2026-04-17 10:27 | 59.80786 | 30.16462 | 685 ft | 152 kts | 103° |
| 2026-04-17 10:28 | 59.80493 | 30.18462 | 464 ft | 153 kts | 104° |
| 2026-04-17 10:28 | 59.80196 | 30.20467 | 232 ft | 150 kts | 103° |
| 2026-04-17 10:28 | 59.79905 | 30.22442 | 101 ft | 143 kts | 104° |
| 2026-04-17 10:28 | 59.79652 | 30.24147 | 87 ft | 108 kts | 107° |
| 2026-04-17 10:29 | 59.79487 | 30.25222 | 89 ft | 55 kts | 106° |
| 2026-04-17 10:29 | 59.79420 | 30.25679 | 90 ft | 27 kts | 106° |
| 2026-04-17 10:29 | 59.79370 | 30.26024 | 87 ft | 19 kts | 106° |
| 2026-04-17 10:29 | 59.79337 | 30.26267 | 87 ft | 11 kts | 95° |
| 2026-04-17 10:30 | 59.79378 | 30.26376 | 88 ft | 11 kts | 21° |
| 2026-04-17 10:30 | 59.79450 | 30.26414 | 90 ft | 11 kts | 1° |
| 2026-04-17 10:30 | 59.79512 | 30.26333 | 91 ft | 11 kts | 337° |
| 2026-04-17 10:30 | 59.79588 | 30.26346 | 91 ft | 11 kts | 15° |
| 2026-04-17 10:31 | 59.79664 | 30.26388 | 90 ft | 11 kts | 15° |
| 2026-04-17 10:31 | 59.79739 | 30.26435 | 89 ft | 11 kts | 18° |
| 2026-04-17 10:31 | 59.79816 | 30.26478 | 90 ft | 11 kts | 15° |
| 2026-04-17 10:31 | 59.79870 | 30.26512 | 86 ft | 7 kts | 26° |
| 2026-04-17 10:32 | 59.79889 | 30.26597 | 89 ft | 7 kts | 103° |
| 2026-04-17 10:32 | 59.79875 | 30.26665 | 86 ft | 1 kts | 109° |
| 2026-04-17 10:32 | 59.79872 | 30.26683 | 86 ft | 2 kts | 109° |
| 2026-04-17 10:32 | 59.79868 | 30.26709 | 86 ft | 2 kts | 108° |
| 2026-04-17 10:33 | 59.79866 | 30.26716 | 86 ft | 0 kts | 108° |